Time;durP1;ratioP1;P1;durP2;ratioP2;P2;SDS_P1;SDS_P2;PMS_P1;PMS_P2;Temp;Humidity;BMP_temperature;BMP_pressure;BME280_temperature;BME280_humidity;BME280_pressure;Samples;Min_cycle;Max_cycle;Signal;HPM_P1;HPM_P2
2023/06/09 00:01:18;;;;;;;7.93;3.28;;;10.90;99.90;;;;;;4819156;29;20079;-91
2023/06/09 00:03:46;;;;;;;6.47;2.88;;;10.80;99.90;;;;;;4850644;29;20079;-91
2023/06/09 00:06:13;;;;;;;7.90;3.53;;;10.70;99.90;;;;;;4852410;29;20377;-91
2023/06/09 00:08:39;;;;;;;9.02;3.67;;;10.70;99.90;;;;;;4853099;29;20533;-92
2023/06/09 00:11:05;;;;;;;5.60;3.00;;;;;;;;;;4835572;29;20642;-90
2023/06/09 00:13:31;;;;;;;7.65;3.15;;;10.60;99.90;;;;;;4839982;29;20048;-91
2023/06/09 00:15:57;;;;;;;7.75;3.40;;;10.60;99.90;;;;;;4817562;29;20412;-91
2023/06/09 00:18:24;;;;;;;7.60;3.13;;;10.60;99.90;;;;;;4822325;29;20548;-91
2023/06/09 00:20:50;;;;;;;6.47;2.83;;;10.50;99.90;;;;;;4836613;29;20114;-92
2023/06/09 00:23:16;;;;;;;8.63;3.13;;;10.40;99.90;;;;;;4819002;29;20568;-92
2023/06/09 00:25:42;;;;;;;6.72;3.10;;;10.50;99.90;;;;;;4847912;29;20053;-92
2023/06/09 00:28:09;;;;;;;6.78;3.00;;;10.40;99.90;;;;;;4838651;29;20037;-91
2023/06/09 00:30:35;;;;;;;7.25;3.13;;;10.40;99.90;;;;;;4854140;29;20037;-92
2023/06/09 00:33:01;;;;;;;8.50;3.17;;;10.40;99.90;;;;;;4848912;29;20565;-91
2023/06/09 00:35:26;;;;;;;6.30;3.00;;;10.40;99.90;;;;;;4833038;29;20033;-92
2023/06/09 00:37:52;;;;;;;7.35;3.22;;;10.40;99.90;;;;;;4815162;29;20166;-92
2023/06/09 00:40:20;;;;;;;6.13;3.28;;;10.40;99.90;;;;;;4843920;29;20124;-92
2023/06/09 00:42:46;;;;;;;6.65;3.45;;;10.40;99.90;;;;;;4847778;29;20041;-92
2023/06/09 00:45:13;;;;;;;8.20;3.60;;;10.50;99.90;;;;;;4863234;29;20101;-91
2023/06/09 00:47:39;;;;;;;10.40;3.90;;;10.50;99.90;;;;;;4842935;29;20045;-91
2023/06/09 00:50:06;;;;;;;6.68;3.55;;;10.60;99.90;;;;;;4823793;29;20241;-91
2023/06/09 00:52:31;;;;;;;8.57;3.97;;;10.60;99.90;;;;;;4821109;29;20048;-92
2023/06/09 00:54:58;;;;;;;6.10;3.85;;;10.60;99.90;;;;;;4828448;29;20030;-91
2023/06/09 00:57:24;;;;;;;11.02;3.85;;;10.70;99.90;;;;;;4870100;29;20037;-92
2023/06/09 00:59:50;;;;;;;9.93;3.80;;;10.70;99.90;;;;;;4833137;29;20033;-91
2023/06/09 01:02:15;;;;;;;10.65;4.13;;;10.80;99.90;;;;;;4853478;29;20045;-91
2023/06/09 01:04:49;;;;;;;9.02;3.88;;;10.80;99.90;;;;;;4831981;29;20048;-92
2023/06/09 01:07:50;;;;;;;9.25;3.95;;;10.80;99.90;;;;;;4853435;29;20040;-91
2023/06/09 01:10:26;;;;;;;6.30;3.70;;;10.80;99.90;;;;;;4862759;29;20049;-92
2023/06/09 01:13:08;;;;;;;6.68;3.78;;;10.70;99.90;;;;;;4862585;29;20542;-91
2023/06/09 01:15:42;;;;;;;8.50;4.13;;;10.70;99.90;;;;;;4856950;29;20045;-91
2023/06/09 01:18:12;;;;;;;8.65;4.32;;;10.60;99.90;;;;;;4846417;29;20041;-92
2023/06/09 01:20:50;;;;;;;9.07;4.05;;;10.60;99.90;;;;;;4852806;29;20678;-91
2023/06/09 01:23:34;;;;;;;8.68;4.00;;;10.60;99.90;;;;;;4876367;29;20051;-91
2023/06/09 01:26:01;;;;;;;7.53;4.00;;;10.60;99.90;;;;;;4867881;29;20123;-92
2023/06/09 01:28:28;;;;;;;;;;;10.70;99.90;;;;;;4872540;29;20040;-91
2023/06/09 01:30:55;;;;;;;7.47;3.70;;;10.70;99.90;;;;;;4873139;29;19933;-91
2023/06/09 01:33:23;;;;;;;8.15;3.55;;;10.80;99.90;;;;;;4856899;29;20123;-92
2023/06/09 01:35:51;;;;;;;7.88;3.30;;;10.90;99.90;;;;;;4866218;29;20512;-92
2023/06/09 01:38:19;;;;;;;10.18;3.80;;;11.00;99.90;;;;;;4860379;29;20039;-92
2023/06/09 01:40:45;;;;;;;6.60;3.53;;;11.00;99.90;;;;;;4868382;29;20033;-91
2023/06/09 01:43:11;;;;;;;8.20;3.97;;;11.10;99.90;;;;;;4839687;29;20048;-91
2023/06/09 01:45:37;;;;;;;8.30;3.55;;;11.20;99.90;;;;;;4866637;29;20044;-92
2023/06/09 01:48:28;;;;;;;10.63;3.80;;;11.30;99.90;;;;;;4884987;29;20060;-91
2023/06/09 01:51:03;;;;;;;9.48;3.90;;;11.30;99.90;;;;;;4852412;29;20056;-92
2023/06/09 01:53:34;;;;;;;9.25;3.75;;;11.40;99.90;;;;;;4865509;29;20040;-91
2023/06/09 01:56:14;;;;;;;6.63;3.88;;;11.40;99.90;;;;;;4857136;29;20127;-92
2023/06/09 01:58:46;;;;;;;7.45;4.07;;;11.40;99.90;;;;;;4862543;29;20033;-92
2023/06/09 02:01:17;;;;;;;9.13;4.15;;;11.50;99.90;;;;;;4864812;29;20056;-91
2023/06/09 02:03:44;;;;;;;5.85;3.42;;;11.50;99.90;;;;;;4863791;29;20045;-92
2023/06/09 02:06:14;;;;;;;;;;;11.50;99.90;;;;;;4849740;29;20296;-91
2023/06/09 02:08:40;;;;;;;11.25;3.85;;;11.50;99.90;;;;;;4862047;29;19927;-92
2023/06/09 02:11:08;;;;;;;7.80;3.63;;;11.50;99.90;;;;;;4846626;29;20052;-92
2023/06/09 02:13:34;;;;;;;11.50;3.63;;;11.50;99.90;;;;;;4862194;29;20036;-91
2023/06/09 02:16:00;;;;;;;8.27;4.13;;;11.50;99.90;;;;;;4827982;29;20504;-92
2023/06/09 02:18:25;;;;;;;10.32;4.93;;;11.50;99.90;;;;;;4857600;29;20101;-92
2023/06/09 02:20:51;;;;;;;8.70;3.90;;;11.50;99.90;;;;;;4878535;29;20564;-91
2023/06/09 02:23:23;;;;;;;8.95;4.05;;;11.50;99.90;;;;;;4867923;29;20043;-92
2023/06/09 02:25:48;;;;;;;10.82;3.95;;;11.60;99.90;;;;;;4862919;29;20165;-92
2023/06/09 02:28:16;;;;;;;9.80;4.00;;;11.60;99.90;;;;;;4867616;29;20060;-92
2023/06/09 02:30:43;;;;;;;6.60;3.20;;;11.60;99.90;;;;;;4860959;29;20048;-92
2023/06/09 02:33:10;;;;;;;8.67;3.93;;;11.50;99.90;;;;;;4862791;29;20051;-91
2023/06/09 02:35:36;;;;;;;7.80;4.20;;;11.40;99.90;;;;;;4859307;29;20610;-93
2023/06/09 02:38:05;;;;;;;6.70;3.58;;;11.40;99.90;;;;;;4855092;29;20123;-93
2023/06/09 02:40:32;;;;;;;7.22;4.15;;;11.40;99.90;;;;;;4869661;29;20033;-92
2023/06/09 02:42:59;;;;;;;7.45;3.47;;;11.40;99.90;;;;;;4852138;29;20048;-92
2023/06/09 02:45:25;;;;;;;7.50;4.20;;;11.40;99.90;;;;;;4837187;29;20055;-91
2023/06/09 02:47:51;;;;;;;7.05;3.83;;;11.40;99.90;;;;;;4872021;29;20040;-92
2023/06/09 02:50:17;;;;;;;9.57;4.22;;;11.40;99.90;;;;;;4866125;29;20101;-92
2023/06/09 02:52:43;;;;;;;11.00;4.82;;;11.40;99.90;;;;;;4852147;29;20048;-92
2023/06/09 02:55:11;;;;;;;12.57;4.50;;;11.40;99.90;;;;;;4871964;29;20062;-92
2023/06/09 02:57:36;;;;;;;12.40;4.72;;;11.40;99.90;;;;;;4880179;29;20066;-92
2023/06/09 03:00:04;;;;;;;9.13;4.70;;;11.40;99.90;;;;;;4869934;29;20036;-92
2023/06/09 03:02:30;;;;;;;;;;;11.50;99.90;;;;;;4868510;29;20525;-91
2023/06/09 03:04:56;;;;;;;9.25;5.00;;;11.50;99.90;;;;;;4869418;29;20499;-92
2023/06/09 03:07:22;;;;;;;12.65;4.95;;;11.50;99.90;;;;;;4866257;29;20087;-92
2023/06/09 03:09:48;;;;;;;14.38;6.13;;;11.50;99.90;;;;;;4868360;29;20076;-92
2023/06/09 03:12:14;;;;;;;14.75;5.82;;;11.60;99.90;;;;;;4861914;29;20097;-91
2023/06/09 03:14:40;;;;;;;9.18;5.10;;;11.60;99.90;;;;;;4850097;29;20037;-92
2023/06/09 03:17:05;;;;;;;13.70;5.38;;;11.60;99.90;;;;;;4844839;29;20036;-92
2023/06/09 03:19:31;;;;;;;11.35;5.80;;;11.70;99.90;;;;;;4856908;29;20045;-90
2023/06/09 03:21:57;;;;;;;10.18;5.50;;;11.70;99.90;;;;;;4859598;29;20135;-91
2023/06/09 03:24:26;;;;;;;9.43;5.10;;;11.70;99.90;;;;;;4857858;29;20094;-92
2023/06/09 03:26:52;;;;;;;8.38;4.68;;;11.80;99.90;;;;;;4881030;29;20710;-91
2023/06/09 03:29:24;;;;;;;10.95;4.43;;;11.80;99.90;;;;;;4867751;29;20052;-91
2023/06/09 03:31:50;;;;;;;13.00;4.60;;;11.80;99.90;;;;;;4852551;29;20072;-91
2023/06/09 03:34:16;;;;;;;9.32;4.75;;;11.80;99.90;;;;;;4873250;29;20075;-92
2023/06/09 03:36:41;;;;;;;13.05;6.13;;;11.80;99.90;;;;;;4851522;29;20045;-92
2023/06/09 03:39:08;;;;;;;8.02;4.53;;;11.90;99.90;;;;;;4827342;29;20512;-92
2023/06/09 03:41:33;;;;;;;14.18;5.32;;;11.90;99.90;;;;;;4852338;29;20059;-92
2023/06/09 03:43:59;;;;;;;11.43;4.82;;;11.90;99.90;;;;;;4873465;29;20053;-91
2023/06/09 03:46:25;;;;;;;10.38;4.70;;;11.90;99.90;;;;;;4874418;29;20515;-91
2023/06/09 03:48:52;;;;;;;9.48;4.55;;;11.90;99.90;;;;;;4871966;29;20072;-92
2023/06/09 03:51:19;;;;;;;11.02;4.88;;;12.00;99.90;;;;;;4857103;29;20771;-92
2023/06/09 03:53:45;;;;;;;11.48;4.78;;;11.90;99.90;;;;;;4884977;29;20128;-90
2023/06/09 03:56:11;;;;;;;9.75;4.38;;;12.00;99.90;;;;;;4854644;29;20040;-92
2023/06/09 03:58:37;;;;;;;12.00;4.90;;;12.00;99.90;;;;;;4831617;29;20044;-92
2023/06/09 04:01:03;;;;;;;9.57;4.05;;;12.10;99.90;;;;;;4849196;29;20033;-92
2023/06/09 04:03:30;;;;;;;8.23;4.40;;;12.10;99.90;;;;;;4861383;29;20037;-91
2023/06/09 04:05:56;;;;;;;9.23;4.60;;;12.10;99.90;;;;;;4872964;29;20036;-92
2023/06/09 04:08:21;;;;;;;11.48;4.25;;;12.20;99.90;;;;;;4869869;29;20096;-92
2023/06/09 04:10:47;;;;;;;9.02;4.32;;;12.20;99.90;;;;;;4864840;29;20036;-92
2023/06/09 04:13:13;;;;;;;11.88;4.35;;;12.20;99.90;;;;;;4844206;29;20040;-92
2023/06/09 04:15:39;;;;;;;7.97;4.65;;;12.20;99.90;;;;;;4839107;29;20064;-93
2023/06/09 04:18:05;;;;;;;9.40;4.70;;;12.30;99.90;;;;;;4871327;29;20041;-91
2023/06/09 04:20:31;;;;;;;10.07;4.38;;;12.30;99.90;;;;;;4852400;29;20044;-91
2023/06/09 04:22:56;;;;;;;9.43;4.90;;;12.40;99.90;;;;;;4836585;29;20120;-93
2023/06/09 04:25:28;;;;;;;8.95;4.10;;;12.40;99.90;;;;;;4839424;29;20049;-92
2023/06/09 04:28:00;;;;;;;12.95;4.32;;;12.40;99.90;;;;;;4883439;29;20045;-93
2023/06/09 04:30:26;;;;;;;10.73;4.28;;;12.50;99.90;;;;;;4855785;29;20305;-92
2023/06/09 04:32:52;;;;;;;8.60;4.45;;;12.50;99.90;;;;;;4850828;29;20123;-92
2023/06/09 04:35:20;;;;;;;12.00;4.18;;;12.50;99.90;;;;;;4852080;29;20043;-92
2023/06/09 04:37:46;;;;;;;12.95;4.32;;;12.50;99.90;;;;;;4883088;29;20131;-94
2023/06/09 04:40:14;;;;;;;9.32;4.45;;;12.60;99.90;;;;;;4855604;29;20068;-96
2023/06/09 04:42:39;;;;;;;9.40;4.30;;;12.60;99.90;;;;;;4877017;29;20045;-93
2023/06/09 04:45:06;;;;;;;8.10;4.20;;;12.70;99.90;;;;;;4864987;29;20496;-93
2023/06/09 04:47:32;;;;;;;7.57;4.22;;;12.70;99.90;;;;;;4866663;29;20605;-93
2023/06/09 04:49:57;;;;;;;10.98;4.65;;;12.80;99.90;;;;;;4837081;29;20786;-91
2023/06/09 04:52:23;;;;;;;9.57;4.20;;;12.80;99.90;;;;;;4866274;29;20044;-92
2023/06/09 04:54:51;;;;;;;13.40;4.72;;;12.80;99.90;;;;;;4853648;29;20040;-91
2023/06/09 04:57:19;;;;;;;12.30;4.70;;;12.90;99.90;;;;;;4843757;29;20068;-92
2023/06/09 04:59:46;;;;;;;8.52;4.43;;;12.90;99.90;;;;;;4861444;29;20115;-92
2023/06/09 05:02:12;;;;;;;11.30;4.32;;;12.90;99.90;;;;;;4850349;29;20052;-92
2023/06/09 05:04:38;;;;;;;9.85;4.88;;;13.00;99.90;;;;;;4857275;29;20053;-92
2023/06/09 05:07:04;;;;;;;7.53;4.47;;;13.00;99.90;;;;;;4863721;29;20075;-92
2023/06/09 05:09:30;;;;;;;10.75;4.63;;;13.10;99.90;;;;;;4861813;29;20048;-95
2023/06/09 05:11:55;;;;;;;9.68;4.68;;;13.10;99.90;;;;;;4863415;29;20123;-91
2023/06/09 05:14:21;;;;;;;9.23;4.88;;;13.20;99.90;;;;;;4851885;29;20037;-93
2023/06/09 05:16:47;;;;;;;9.77;4.68;;;13.20;99.90;;;;;;4865993;29;20040;-91
2023/06/09 05:19:13;;;;;;;11.75;4.53;;;13.20;99.90;;;;;;4866577;29;20040;-91
2023/06/09 05:21:39;;;;;;;11.25;4.40;;;13.30;99.90;;;;;;4847583;29;20105;-91
2023/06/09 05:24:05;;;;;;;6.63;3.97;;;13.40;99.90;;;;;;4846851;29;20519;-92
2023/06/09 05:26:31;;;;;;;9.98;4.35;;;13.50;99.90;;;;;;4818820;29;20041;-93
2023/06/09 05:28:58;;;;;;;12.68;4.90;;;13.60;99.90;;;;;;4847113;29;20044;-91
2023/06/09 05:31:24;;;;;;;14.35;5.07;;;13.60;99.90;;;;;;4849510;29;20051;-91
2023/06/09 05:33:50;;;;;;;8.65;3.92;;;13.70;99.90;;;;;;4847782;29;20033;-94
2023/06/09 05:36:16;;;;;;;10.45;4.32;;;13.70;99.90;;;;;;4845519;29;20097;-92
2023/06/09 05:38:42;;;;;;;11.43;4.35;;;13.80;99.90;;;;;;4847449;29;20048;-92
2023/06/09 05:41:08;;;;;;;9.98;3.70;;;14.00;99.90;;;;;;4832117;29;20501;-92
2023/06/09 05:43:33;;;;;;;10.32;4.88;;;14.10;99.90;;;;;;4846282;29;20693;-92
2023/06/09 05:45:59;;;;;;;7.90;3.75;;;14.30;99.90;;;;;;4830971;29;20045;-92
2023/06/09 05:48:25;;;;;;;9.50;4.47;;;14.40;99.90;;;;;;5134107;24;20049;-92
2023/06/09 05:50:51;;;;;;;8.80;3.90;;;14.70;99.90;;;;;;4828523;29;20057;-92
2023/06/09 05:53:17;;;;;;;10.55;3.50;;;15.10;99.90;;;;;;4830745;29;20040;-80
2023/06/09 05:55:45;;;;;;;6.57;3.47;;;16.00;99.90;;;;;;4828935;29;20041;-89
2023/06/09 05:58:15;;;;;;;8.68;3.28;;;17.00;99.90;;;;;;4828127;29;20045;-92
2023/06/09 06:00:41;;;;;;;8.90;3.60;;;17.90;99.90;;;;;;4828218;29;20059;-90
2023/06/09 06:03:09;;;;;;;9.27;3.57;;;18.60;99.90;;;;;;4817458;29;20037;-88
2023/06/09 06:05:34;;;;;;;7.90;3.53;;;18.90;99.90;;;;;;4828351;29;20617;-88
2023/06/09 06:08:01;;;;;;;7.13;3.80;;;18.70;99.90;;;;;;4832035;29;20086;-88
2023/06/09 06:10:26;;;;;;;6.00;3.25;;;18.40;99.90;;;;;;4827485;29;20118;-92
2023/06/09 06:12:53;;;;;;;9.35;3.60;;;18.10;99.90;;;;;;4824282;29;20042;-92
2023/06/09 06:15:19;;;;;;;10.45;3.95;;;18.00;99.90;;;;;;4813234;29;20045;-94
2023/06/09 06:17:45;;;;;;;7.15;3.20;;;18.00;99.90;;;;;;4815202;29;20034;-93
2023/06/09 06:20:12;;;;;;;5.72;3.17;;;18.10;99.90;;;;;;4808972;29;20054;-93
2023/06/09 06:22:39;;;;;;;5.78;3.50;;;18.20;99.90;;;;;;4803825;29;20050;-94
2023/06/09 06:25:05;;;;;;;6.72;3.50;;;18.10;99.90;;;;;;4813383;29;20708;-93
2023/06/09 06:27:31;;;;;;;6.90;3.13;;;17.90;99.90;;;;;;4838987;29;20045;-93
2023/06/09 06:29:56;;;;;;;8.80;3.78;;;17.70;99.90;;;;;;4813227;29;20047;-94
2023/06/09 06:32:25;;;;;;;6.60;3.35;;;17.60;99.90;;;;;;4814623;29;20052;-93
2023/06/09 06:34:50;;;;;;;7.15;3.58;;;17.50;99.90;;;;;;4826478;29;20041;-93
2023/06/09 06:37:16;;;;;;;8.95;3.30;;;17.40;99.90;;;;;;4829072;29;20098;-92
2023/06/09 06:39:42;;;;;;;9.52;3.60;;;17.40;99.90;;;;;;4799756;29;20401;-94
2023/06/09 06:42:08;;;;;;;8.43;3.65;;;17.50;99.90;;;;;;4815492;29;20053;-92
2023/06/09 06:44:33;;;;;;;9.45;3.60;;;17.60;99.90;;;;;;4811500;29;20104;-94
2023/06/09 06:47:00;;;;;;;7.72;3.80;;;17.50;99.90;;;;;;4827362;29;20045;-92
2023/06/09 06:49:25;;;;;;;8.00;3.53;;;17.60;99.90;;;;;;4858540;29;20049;-93
2023/06/09 06:51:51;;;;;;;7.55;3.33;;;17.70;99.90;;;;;;4818108;29;20046;-95
2023/06/09 06:54:17;;;;;;;8.65;3.90;;;17.90;99.90;;;;;;4876298;29;20143;-93
2023/06/09 06:56:43;;;;;;;9.30;3.65;;;18.40;99.90;;;;;;4867137;29;20040;-93
2023/06/09 06:59:09;;;;;;;6.32;3.22;;;19.30;99.90;;;;;;4881495;29;20069;-93
2023/06/09 07:01:37;;;;;;;6.50;3.20;;;20.10;99.90;;;;;;4850580;29;20025;-93
2023/06/09 07:04:03;;;;;;;7.00;3.17;;;21.00;99.90;;;;;;4868181;29;20044;-94
2023/06/09 07:06:31;;;;;;;8.50;3.17;;;21.90;99.90;;;;;;4859050;29;20041;-94
2023/06/09 07:08:58;;;;;;;6.97;3.35;;;22.50;99.90;;;;;;4847079;29;20120;-93
2023/06/09 07:11:23;;;;;;;10.55;3.15;;;23.20;99.90;;;;;;4817441;29;20041;-93
2023/06/09 07:13:51;;;;;;;7.55;3.47;;;23.60;99.90;;;;;;4847052;29;20047;-93
2023/06/09 07:16:18;;;;;;;8.13;3.33;;;24.10;99.90;;;;;;4830395;29;20041;-96
2023/06/09 07:18:44;;;;;;;6.22;2.92;;;24.40;99.90;;;;;;4835763;29;20038;-96
2023/06/09 07:21:09;;;;;;;5.63;3.00;;;24.40;99.90;;;;;;4847536;29;20470;-95
2023/06/09 07:23:35;;;;;;;6.40;3.53;;;24.60;99.90;;;;;;4836790;29;20048;-94
2023/06/09 07:26:01;;;;;;;12.37;2.97;;;24.80;99.90;;;;;;4831732;29;20044;-96
2023/06/09 07:28:27;;;;;;;6.70;3.03;;;24.90;99.90;;;;;;4849626;29;20561;-94
2023/06/09 07:30:55;;;;;;;7.28;2.67;;;25.20;99.90;;;;;;4850813;29;20097;-96
2023/06/09 07:33:20;;;;;;;6.03;2.92;;;25.40;99.90;;;;;;4848622;29;20057;-95
2023/06/09 07:35:48;;;;;;;4.50;2.57;;;25.50;99.90;;;;;;4853619;29;20524;-96
2023/06/09 07:38:15;;;;;;;6.13;2.72;;;25.50;99.90;;;;;;4848598;29;20059;-96
2023/06/09 07:40:41;;;;;;;7.63;2.95;;;25.50;99.90;;;;;;4830992;29;20060;-96
2023/06/09 07:43:07;;;;;;;6.53;2.70;;;25.80;99.90;;;;;;4838652;29;20049;-96
2023/06/09 07:45:33;;;;;;;6.03;3.17;;;25.90;99.90;;;;;;4851411;29;20052;-96
2023/06/09 07:47:59;;;;;;;6.63;3.08;;;26.20;99.90;;;;;;4835359;29;20076;-94
2023/06/09 07:50:25;;;;;;;7.22;2.78;;;26.20;99.90;;;;;;4850113;29;20045;-95
2023/06/09 07:52:51;;;;;;;8.65;2.97;;;26.20;99.90;;;;;;4849410;29;20079;-94
2023/06/09 07:55:18;;;;;;;5.18;3.00;;;26.30;99.90;;;;;;4865197;29;20049;-95
2023/06/09 07:57:43;;;;;;;4.60;2.80;;;26.40;99.90;;;;;;4853039;29;20045;-95
2023/06/09 08:00:10;;;;;;;6.23;2.73;;;26.40;98.80;;;;;;4849836;29;21013;-95
2023/06/09 08:02:40;;;;;;;5.95;2.95;;;26.30;98.30;;;;;;4849830;29;20082;-95
2023/06/09 08:05:06;;;;;;;9.20;3.20;;;26.00;99.90;;;;;;4854082;29;20041;-94
2023/06/09 08:07:32;;;;;;;8.30;2.95;;;25.60;99.90;;;;;;4841186;29;20084;-95
2023/06/09 08:09:58;;;;;;;15.83;3.57;;;25.10;99.90;;;;;;4850774;29;20624;-96
2023/06/09 08:12:24;;;;;;;5.07;2.70;;;24.80;99.90;;;;;;4851165;29;20500;-95
2023/06/09 08:14:50;;;;;;;6.13;2.73;;;24.60;99.90;;;;;;4854754;29;20116;-94
2023/06/09 08:17:15;;;;;;;6.30;2.80;;;24.40;99.90;;;;;;4871668;29;20504;-96
2023/06/09 08:19:42;;;;;;;8.43;3.33;;;24.20;99.90;;;;;;4871962;29;20025;-95
2023/06/09 08:22:08;;;;;;;6.47;2.83;;;24.10;99.90;;;;;;4858728;29;20036;-94
2023/06/09 08:24:36;;;;;;;6.10;2.70;;;24.10;99.90;;;;;;4855109;29;20044;-95
2023/06/09 08:27:02;;;;;;;5.75;3.10;;;24.20;99.90;;;;;;4855812;29;20049;-93
2023/06/09 08:29:28;;;;;;;9.23;3.30;;;24.30;99.90;;;;;;4854410;29;20084;-93
2023/06/09 08:31:54;;;;;;;4.43;2.50;;;24.30;99.90;;;;;;4833277;29;20466;-92
2023/06/09 08:34:19;;;;;;;7.23;2.83;;;24.30;99.90;;;;;;4841937;29;20120;-93
2023/06/09 08:36:45;;;;;;;7.17;3.37;;;24.20;99.90;;;;;;4831200;29;20041;-92
2023/06/09 08:39:11;;;;;;;4.37;2.73;;;24.10;99.90;;;;;;4834677;29;20169;-94
2023/06/09 08:41:38;;;;;;;5.83;3.17;;;24.00;99.90;;;;;;4835900;29;20437;-92
2023/06/09 08:44:05;;;;;;;6.10;3.05;;;24.00;99.90;;;;;;4852652;29;20315;-92
2023/06/09 08:46:35;;;;;;;7.43;2.80;;;24.10;99.90;;;;;;4836483;29;20041;-93
2023/06/09 08:49:02;;;;;;;5.78;2.47;;;24.20;99.90;;;;;;4847457;29;20097;-93
2023/06/09 08:51:32;;;;;;;8.98;2.90;;;24.30;99.90;;;;;;4830962;29;20053;-94
2023/06/09 08:54:00;;;;;;;5.25;2.70;;;24.50;99.90;;;;;;4850371;29;20077;-93
2023/06/09 08:56:26;;;;;;;5.90;3.10;;;24.70;99.90;;;;;;4834529;29;20128;-92
2023/06/09 08:58:53;;;;;;;4.03;2.40;;;24.90;97.10;;;;;;4867082;29;20119;-94
2023/06/09 09:01:19;;;;;;;4.57;2.65;;;25.00;95.90;;;;;;4851372;29;20045;-94
2023/06/09 09:03:48;;;;;;;5.15;2.50;;;25.20;95.80;;;;;;4833739;29;20068;-91
2023/06/09 09:06:15;;;;;;;6.90;3.33;;;25.20;93.30;;;;;;4844939;29;20076;-93
2023/06/09 09:08:41;;;;;;;7.28;2.80;;;25.20;93.10;;;;;;4843194;29;20114;-94
2023/06/09 09:11:07;;;;;;;4.97;3.00;;;25.30;93.00;;;;;;4845816;29;20124;-92
2023/06/09 09:13:33;;;;;;;5.83;2.47;;;25.20;92.60;;;;;;4848927;29;20143;-94
2023/06/09 09:16:02;;;;;;;5.63;2.47;;;25.20;93.60;;;;;;4849077;29;20048;-94
2023/06/09 09:18:34;;;;;;;4.68;2.50;;;25.50;93.80;;;;;;4849091;29;20037;-92
2023/06/09 09:21:01;;;;;;;4.03;2.40;;;25.60;91.60;;;;;;4839477;29;20524;-93
2023/06/09 09:23:33;;;;;;;4.88;2.38;;;25.60;90.80;;;;;;4843719;29;20504;-93
2023/06/09 09:26:03;;;;;;;7.47;2.70;;;25.60;87.50;;;;;;4837630;29;20109;-93
2023/06/09 09:28:42;;;;;;;5.15;2.53;;;25.60;90.70;;;;;;4848460;29;20045;-93
2023/06/09 09:31:08;;;;;;;5.50;2.38;;;25.60;84.50;;;;;;4848582;29;20047;-92
2023/06/09 09:33:38;;;;;;;7.50;2.38;;;25.40;87.00;;;;;;4834015;29;20074;-92
2023/06/09 09:36:10;;;;;;;8.05;3.35;;;25.40;86.90;;;;;;4849125;29;20446;-92
2023/06/09 09:38:35;;;;;;;10.02;2.70;;;25.30;86.60;;;;;;4863388;29;20114;-93
2023/06/09 09:41:04;;;;;;;5.83;2.50;;;25.30;86.70;;;;;;4882892;29;20040;-94
2023/06/09 09:43:30;;;;;;;4.60;2.20;;;25.40;85.60;;;;;;4835364;29;20101;-93
2023/06/09 09:46:01;;;;;;;4.80;2.30;;;25.50;85.20;;;;;;4865420;29;20044;-93
2023/06/09 09:48:28;;;;;;;6.38;2.47;;;25.50;82.60;;;;;;4882072;29;20045;-94
2023/06/09 09:50:55;;;;;;;5.22;1.92;;;25.60;82.80;;;;;;4884070;29;20040;-93
2023/06/09 09:53:22;;;;;;;6.22;2.28;;;25.70;81.80;;;;;;4867345;29;20051;-93
2023/06/09 09:55:52;;;;;;;4.35;2.10;;;25.80;80.50;;;;;;4868346;29;20052;-92
2023/06/09 09:58:18;;;;;;;4.28;1.90;;;25.90;79.10;;;;;;4865142;29;20144;-93
2023/06/09 10:00:46;;;;;;;6.03;2.55;;;25.90;78.10;;;;;;4851666;29;20045;-93
2023/06/09 10:03:17;;;;;;;5.38;2.22;;;26.00;78.80;;;;;;4830163;29;20034;-93
2023/06/09 10:05:46;;;;;;;4.18;2.40;;;26.00;77.30;;;;;;4847199;29;20108;-93
2023/06/09 10:08:26;;;;;;;4.90;2.42;;;25.90;77.30;;;;;;4844391;29;20114;-93
2023/06/09 10:10:54;;;;;;;5.13;2.50;;;26.00;77.40;;;;;;4853455;29;20048;-94
2023/06/09 10:13:22;;;;;;;6.07;2.58;;;25.80;76.80;;;;;;4863567;29;20045;-93
2023/06/09 10:15:50;;;;;;;4.10;2.25;;;26.00;77.70;;;;;;4838187;29;20245;-92
2023/06/09 10:18:16;;;;;;;5.60;2.38;;;26.10;78.10;;;;;;4853350;29;20056;-94
2023/06/09 10:20:44;;;;;;;4.95;2.55;;;26.00;76.40;;;;;;4837373;29;20106;-93
2023/06/09 10:23:10;;;;;;;5.32;2.58;;;26.00;77.60;;;;;;4852017;29;20036;-93
2023/06/09 10:25:37;;;;;;;4.95;2.28;;;26.10;77.80;;;;;;4864196;29;20041;-93
2023/06/09 10:28:03;;;;;;;4.90;2.47;;;26.20;78.00;;;;;;4832731;29;20041;-92
2023/06/09 10:30:29;;;;;;;3.65;2.08;;;26.40;78.50;;;;;;4847625;29;20045;-92
2023/06/09 10:33:13;;;;;;;5.47;2.70;;;26.50;77.80;;;;;;4855340;29;20051;-94
2023/06/09 10:35:40;;;;;;;6.25;2.75;;;26.40;77.40;;;;;;4849066;29;20045;-93
2023/06/09 10:38:24;;;;;;;3.45;2.22;;;26.50;78.00;;;;;;4855860;29;20106;-93
2023/06/09 10:40:58;;;;;;;3.80;2.10;;;26.60;78.00;;;;;;4843652;29;20041;-91
2023/06/09 10:43:26;;;;;;;4.60;2.22;;;26.70;77.10;;;;;;4847086;29;20045;-96
2023/06/09 10:45:54;;;;;;;4.68;2.35;;;26.80;76.20;;;;;;4848066;29;20053;-94
2023/06/09 10:48:46;;;;;;;4.70;2.58;;;26.80;75.80;;;;;;4847140;29;20041;-94
2023/06/09 10:51:27;;;;;;;5.00;2.70;;;27.00;75.20;;;;;;4847040;29;20057;-93
2023/06/09 10:54:09;;;;;;;5.45;2.38;;;27.00;75.40;;;;;;4859503;29;20128;-94
2023/06/09 10:56:42;;;;;;;4.57;2.15;;;27.00;75.00;;;;;;4839253;29;20048;-94
2023/06/09 10:59:26;;;;;;;5.82;2.35;;;27.10;75.50;;;;;;4862707;29;20109;-92
2023/06/09 11:02:01;;;;;;;4.90;2.38;;;27.20;73.90;;;;;;4857990;29;20040;-91
2023/06/09 11:04:43;;;;;;;3.42;1.90;;;27.20;73.60;;;;;;4854937;29;20059;-95
2023/06/09 11:07:16;;;;;;;5.70;2.67;;;27.30;73.30;;;;;;4855194;29;20722;-95
2023/06/09 11:09:51;;;;;;;8.05;2.28;;;27.40;73.80;;;;;;4840559;29;20052;-93
2023/06/09 11:12:36;;;;;;;6.93;2.22;;;27.40;72.50;;;;;;4849770;29;20043;-94
2023/06/09 11:15:03;;;;;;;3.22;2.25;;;27.40;72.30;;;;;;4842372;29;20536;-94
2023/06/09 11:17:37;;;;;;;9.63;2.40;;;27.40;73.30;;;;;;4856317;29;20049;-93
2023/06/09 11:20:06;;;;;;;5.57;2.00;;;27.50;72.90;;;;;;4856078;29;20041;-92
2023/06/09 11:22:53;;;;;;;3.72;1.90;;;27.50;72.20;;;;;;4881239;29;20076;-93
2023/06/09 11:25:18;;;;;;;4.15;2.28;;;27.60;72.10;;;;;;4865933;29;20044;-93
2023/06/09 11:28:08;;;;;;;4.20;2.23;;;27.70;71.90;;;;;;4874873;29;20038;-93
2023/06/09 11:30:55;;;;;;;5.35;2.22;;;27.60;71.10;;;;;;4870133;29;20036;-94
2023/06/09 11:33:46;;;;;;;3.37;2.20;;;27.60;71.30;;;;;;4903805;29;20049;-95
2023/06/09 11:36:20;;;;;;;5.95;2.28;;;27.70;71.40;;;;;;4867459;29;20036;-88
2023/06/09 11:38:47;;;;;;;5.72;2.30;;;27.80;71.50;;;;;;4855450;29;20444;-93
2023/06/09 11:41:14;;;;;;;7.28;2.20;;;27.80;70.70;;;;;;4839529;29;20051;-94
2023/06/09 11:43:48;;;;;;;5.32;2.28;;;27.70;70.30;;;;;;4834043;29;20048;-93
2023/06/09 11:46:15;;;;;;;4.43;2.30;;;27.70;69.20;;;;;;4850822;29;20072;-94
2023/06/09 11:49:03;;;;;;;3.53;2.10;;;27.70;70.20;;;;;;4842655;29;20102;-93
2023/06/09 11:51:49;;;;;;;5.80;2.42;;;27.80;69.60;;;;;;4849694;29;20049;-92
2023/06/09 11:54:15;;;;;;;6.03;2.50;;;27.70;69.10;;;;;;4852732;29;20045;-91
2023/06/09 11:56:41;;;;;;;8.18;2.40;;;27.70;68.90;;;;;;4850553;29;20386;-94
2023/06/09 11:59:07;;;;;;;;;;;27.60;68.70;;;;;;4846386;29;20045;-93
2023/06/09 12:01:36;;;;;;;5.60;2.40;;;27.50;67.10;;;;;;4834617;29;19996;-94
2023/06/09 12:04:04;;;;;;;3.65;2.35;;;27.50;68.10;;;;;;4839493;29;20040;-94
2023/06/09 12:06:37;;;;;;;4.75;2.42;;;27.40;67.40;;;;;;4870015;29;20044;-94
2023/06/09 12:09:25;;;;;;;4.72;2.20;;;27.40;67.80;;;;;;4850406;29;20055;-93
2023/06/09 12:11:52;;;;;;;4.20;2.40;;;27.50;68.50;;;;;;4854240;29;20081;-92
2023/06/09 12:14:37;;;;;;;5.80;2.22;;;27.40;68.00;;;;;;4849707;29;20044;-93
2023/06/09 12:17:06;;;;;;;5.60;2.50;;;27.40;68.30;;;;;;4864378;29;20037;-94
2023/06/09 12:19:32;;;;;;;3.30;2.05;;;27.50;67.70;;;;;;4834806;29;20333;-94
2023/06/09 12:21:58;;;;;;;4.50;2.13;;;27.50;67.90;;;;;;4838312;29;20689;-92
2023/06/09 12:24:26;;;;;;;4.23;2.23;;;27.50;68.10;;;;;;4853990;29;21119;-93
2023/06/09 12:27:09;;;;;;;4.65;2.22;;;27.40;67.90;;;;;;4852549;29;20044;-93
2023/06/09 12:29:34;;;;;;;5.90;2.10;;;27.40;67.70;;;;;;4868831;29;20485;-94
2023/06/09 12:32:00;;;;;;;4.47;2.30;;;27.40;68.00;;;;;;4832542;29;20128;-91
2023/06/09 12:34:29;;;;;;;7.63;2.30;;;27.30;67.20;;;;;;4845566;29;20112;-93
2023/06/09 12:36:58;;;;;;;6.72;2.30;;;27.30;67.10;;;;;;4849205;29;20052;-91
2023/06/09 12:39:34;;;;;;;3.80;2.10;;;27.20;66.80;;;;;;4849823;29;20091;-93
2023/06/09 12:42:13;;;;;;;3.85;2.30;;;27.20;67.00;;;;;;4848792;29;20445;-94
2023/06/09 12:44:39;;;;;;;4.75;2.20;;;27.20;67.00;;;;;;4848862;29;20037;-94
2023/06/09 12:47:15;;;;;;;3.78;2.10;;;27.10;67.10;;;;;;4846681;29;20045;-93
2023/06/09 12:49:43;;;;;;;4.82;2.33;;;27.00;65.60;;;;;;4847889;29;20416;-93
2023/06/09 12:52:09;;;;;;;3.40;1.92;;;27.00;68.10;;;;;;4866519;29;20056;-95